sensor_id;sensor_type;location;lat;lon;timestamp;P1;durP1;ratioP1;P2;durP2;ratioP2
55015;SDS011;40919;43.236;21.590;2022-09-28T00:01:36;21.65;;;10.63;;
55015;SDS011;40919;43.236;21.590;2022-09-28T00:03:55;13.23;;;5.47;;
55015;SDS011;40919;43.236;21.590;2022-09-28T00:06:25;8.15;;;4.20;;
55015;SDS011;40919;43.236;21.590;2022-09-28T00:08:53;11.05;;;3.75;;
55015;SDS011;40919;43.236;21.590;2022-09-28T00:11:20;9.82;;;4.38;;
55015;SDS011;40919;43.236;21.590;2022-09-28T00:13:50;11.65;;;4.97;;
55015;SDS011;40919;43.236;21.590;2022-09-28T00:16:22;17.60;;;8.98;;
55015;SDS011;40919;43.236;21.590;2022-09-28T00:18:50;13.65;;;5.72;;
55015;SDS011;40919;43.236;21.590;2022-09-28T00:21:17;10.45;;;5.38;;
55015;SDS011;40919;43.236;21.590;2022-09-28T00:23:50;9.25;;;4.18;;
55015;SDS011;40919;43.236;21.590;2022-09-28T00:26:52;13.13;;;5.68;;
55015;SDS011;40919;43.236;21.590;2022-09-28T00:29:29;14.85;;;5.57;;
55015;SDS011;40919;43.236;21.590;2022-09-28T00:31:58;10.38;;;4.30;;
55015;SDS011;40919;43.236;21.590;2022-09-28T00:34:38;9.23;;;3.95;;
55015;SDS011;40919;43.236;21.590;2022-09-28T00:37:06;7.25;;;3.67;;
55015;SDS011;40919;43.236;21.590;2022-09-28T00:39:33;12.30;;;4.50;;
55015;SDS011;40919;43.236;21.590;2022-09-28T00:42:01;22.17;;;9.13;;
55015;SDS011;40919;43.236;21.590;2022-09-28T00:52:31;24.70;;;12.15;;
55015;SDS011;40919;43.236;21.590;2022-09-28T00:55:20;23.95;;;12.95;;
55015;SDS011;40919;43.236;21.590;2022-09-28T00:57:52;18.40;;;10.70;;
55015;SDS011;40919;43.236;21.590;2022-09-28T01:00:22;14.07;;;7.75;;
55015;SDS011;40919;43.236;21.590;2022-09-28T01:02:48;17.42;;;9.48;;
55015;SDS011;40919;43.236;21.590;2022-09-28T01:05:14;15.73;;;6.78;;
55015;SDS011;40919;43.236;21.590;2022-09-28T01:07:43;16.67;;;8.90;;
55015;SDS011;40919;43.236;21.590;2022-09-28T01:10:10;17.30;;;9.75;;
55015;SDS011;40919;43.236;21.590;2022-09-28T01:12:37;17.48;;;9.68;;
55015;SDS011;40919;43.236;21.590;2022-09-28T01:15:03;14.93;;;7.85;;
55015;SDS011;40919;43.236;21.590;2022-09-28T01:22:54;10.68;;;6.40;;
55015;SDS011;40919;43.236;21.590;2022-09-28T01:25:58;10.70;;;6.18;;
55015;SDS011;40919;43.236;21.590;2022-09-28T01:28:42;11.40;;;6.07;;
55015;SDS011;40919;43.236;21.590;2022-09-28T01:31:12;12.23;;;6.95;;
55015;SDS011;40919;43.236;21.590;2022-09-28T01:33:43;10.95;;;6.45;;
55015;SDS011;40919;43.236;21.590;2022-09-28T01:36:16;12.48;;;7.43;;
55015;SDS011;40919;43.236;21.590;2022-09-28T01:38:57;12.80;;;8.32;;
55015;SDS011;40919;43.236;21.590;2022-09-28T01:41:36;14.07;;;8.20;;
55015;SDS011;40919;43.236;21.590;2022-09-28T01:44:07;17.23;;;11.55;;
55015;SDS011;40919;43.236;21.590;2022-09-28T01:46:38;23.33;;;13.65;;
55015;SDS011;40919;43.236;21.590;2022-09-28T01:49:11;22.75;;;12.13;;
55015;SDS011;40919;43.236;21.590;2022-09-28T01:52:02;22.40;;;12.18;;
55015;SDS011;40919;43.236;21.590;2022-09-28T01:54:37;23.50;;;12.45;;
55015;SDS011;40919;43.236;21.590;2022-09-28T01:57:10;23.17;;;14.55;;
55015;SDS011;40919;43.236;21.590;2022-09-28T01:59:52;23.10;;;13.77;;
55015;SDS011;40919;43.236;21.590;2022-09-28T02:05:36;21.85;;;14.23;;
55015;SDS011;40919;43.236;21.590;2022-09-28T02:08:08;15.02;;;9.30;;
55015;SDS011;40919;43.236;21.590;2022-09-28T02:11:17;9.88;;;5.28;;
55015;SDS011;40919;43.236;21.590;2022-09-28T02:14:07;9.57;;;5.80;;
55015;SDS011;40919;43.236;21.590;2022-09-28T02:16:39;9.90;;;5.40;;
55015;SDS011;40919;43.236;21.590;2022-09-28T02:19:07;9.40;;;4.95;;
55015;SDS011;40919;43.236;21.590;2022-09-28T02:24:23;9.23;;;5.25;;
55015;SDS011;40919;43.236;21.590;2022-09-28T02:26:51;11.32;;;5.60;;
55015;SDS011;40919;43.236;21.590;2022-09-28T02:29:22;14.43;;;6.65;;
55015;SDS011;40919;43.236;21.590;2022-09-28T02:31:48;11.95;;;5.63;;
55015;SDS011;40919;43.236;21.590;2022-09-28T02:34:15;13.18;;;5.30;;
55015;SDS011;40919;43.236;21.590;2022-09-28T02:36:41;7.55;;;4.72;;
55015;SDS011;40919;43.236;21.590;2022-09-28T02:39:15;9.73;;;5.30;;
55015;SDS011;40919;43.236;21.590;2022-09-28T02:47:43;7.00;;;4.35;;
55015;SDS011;40919;43.236;21.590;2022-09-28T02:50:29;7.57;;;4.25;;
55015;SDS011;40919;43.236;21.590;2022-09-28T02:58:49;7.25;;;4.43;;
55015;SDS011;40919;43.236;21.590;2022-09-28T03:01:35;6.60;;;4.25;;
55015;SDS011;40919;43.236;21.590;2022-09-28T03:09:48;8.70;;;4.70;;
55015;SDS011;40919;43.236;21.590;2022-09-28T03:12:17;7.88;;;4.63;;
55015;SDS011;40919;43.236;21.590;2022-09-28T03:14:44;8.75;;;4.80;;
55015;SDS011;40919;43.236;21.590;2022-09-28T03:17:10;9.38;;;5.05;;
55015;SDS011;40919;43.236;21.590;2022-09-28T03:19:36;10.30;;;4.60;;
55015;SDS011;40919;43.236;21.590;2022-09-28T03:22:02;16.15;;;5.10;;
55015;SDS011;40919;43.236;21.590;2022-09-28T03:24:29;11.52;;;5.00;;
55015;SDS011;40919;43.236;21.590;2022-09-28T03:26:55;11.52;;;5.55;;
55015;SDS011;40919;43.236;21.590;2022-09-28T03:29:21;13.45;;;5.63;;
55015;SDS011;40919;43.236;21.590;2022-09-28T03:31:47;12.18;;;7.00;;
55015;SDS011;40919;43.236;21.590;2022-09-28T03:34:13;11.98;;;5.05;;
55015;SDS011;40919;43.236;21.590;2022-09-28T03:36:39;12.63;;;6.13;;
55015;SDS011;40919;43.236;21.590;2022-09-28T03:39:05;10.82;;;5.88;;
55015;SDS011;40919;43.236;21.590;2022-09-28T03:41:31;9.88;;;5.78;;
55015;SDS011;40919;43.236;21.590;2022-09-28T03:43:57;11.68;;;6.00;;
55015;SDS011;40919;43.236;21.590;2022-09-28T03:46:22;12.52;;;5.97;;
55015;SDS011;40919;43.236;21.590;2022-09-28T03:48:48;15.82;;;6.47;;
55015;SDS011;40919;43.236;21.590;2022-09-28T03:51:14;10.32;;;5.95;;
55015;SDS011;40919;43.236;21.590;2022-09-28T03:53:40;12.02;;;5.88;;
55015;SDS011;40919;43.236;21.590;2022-09-28T03:56:15;12.27;;;5.60;;
55015;SDS011;40919;43.236;21.590;2022-09-28T03:58:41;10.98;;;5.85;;
55015;SDS011;40919;43.236;21.590;2022-09-28T04:01:08;11.43;;;5.63;;
55015;SDS011;40919;43.236;21.590;2022-09-28T04:03:38;10.98;;;5.65;;
55015;SDS011;40919;43.236;21.590;2022-09-28T04:06:04;13.70;;;6.57;;
55015;SDS011;40919;43.236;21.590;2022-09-28T04:08:30;12.20;;;6.72;;
55015;SDS011;40919;43.236;21.590;2022-09-28T04:10:59;15.07;;;6.93;;
55015;SDS011;40919;43.236;21.590;2022-09-28T04:13:26;10.73;;;6.63;;
55015;SDS011;40919;43.236;21.590;2022-09-28T04:15:53;21.02;;;8.75;;
55015;SDS011;40919;43.236;21.590;2022-09-28T04:18:20;16.15;;;9.07;;
55015;SDS011;40919;43.236;21.590;2022-09-28T04:20:47;13.80;;;7.85;;
55015;SDS011;40919;43.236;21.590;2022-09-28T04:23:21;19.10;;;8.20;;
55015;SDS011;40919;43.236;21.590;2022-09-28T04:25:50;8.68;;;6.53;;
55015;SDS011;40919;43.236;21.590;2022-09-28T04:28:16;13.60;;;7.10;;
55015;SDS011;40919;43.236;21.590;2022-09-28T04:31:00;11.88;;;8.13;;
55015;SDS011;40919;43.236;21.590;2022-09-28T04:33:26;10.40;;;7.70;;
55015;SDS011;40919;43.236;21.590;2022-09-28T04:35:51;10.57;;;7.47;;
55015;SDS011;40919;43.236;21.590;2022-09-28T04:38:17;14.93;;;7.60;;
55015;SDS011;40919;43.236;21.590;2022-09-28T04:40:43;13.68;;;7.90;;
55015;SDS011;40919;43.236;21.590;2022-09-28T04:43:09;12.25;;;7.82;;
55015;SDS011;40919;43.236;21.590;2022-09-28T04:45:35;14.52;;;7.85;;
55015;SDS011;40919;43.236;21.590;2022-09-28T04:48:00;14.52;;;8.50;;
55015;SDS011;40919;43.236;21.590;2022-09-28T04:50:26;14.52;;;8.23;;
55015;SDS011;40919;43.236;21.590;2022-09-28T04:52:52;17.20;;;8.57;;
55015;SDS011;40919;43.236;21.590;2022-09-28T04:55:18;14.18;;;8.32;;
55015;SDS011;40919;43.236;21.590;2022-09-28T04:57:44;12.02;;;8.15;;
55015;SDS011;40919;43.236;21.590;2022-09-28T05:00:10;11.98;;;7.25;;
55015;SDS011;40919;43.236;21.590;2022-09-28T05:02:36;15.65;;;9.07;;
55015;SDS011;40919;43.236;21.590;2022-09-28T05:05:03;14.77;;;8.35;;
55015;SDS011;40919;43.236;21.590;2022-09-28T05:07:29;9.70;;;7.00;;
55015;SDS011;40919;43.236;21.590;2022-09-28T05:09:55;12.55;;;6.78;;
55015;SDS011;40919;43.236;21.590;2022-09-28T05:12:21;13.77;;;7.13;;
55015;SDS011;40919;43.236;21.590;2022-09-28T05:14:47;10.13;;;5.68;;
55015;SDS011;40919;43.236;21.590;2022-09-28T05:17:13;14.50;;;7.53;;
55015;SDS011;40919;43.236;21.590;2022-09-28T05:19:39;14.27;;;7.97;;
55015;SDS011;40919;43.236;21.590;2022-09-28T05:22:05;18.83;;;7.25;;
55015;SDS011;40919;43.236;21.590;2022-09-28T05:24:35;12.73;;;7.88;;
55015;SDS011;40919;43.236;21.590;2022-09-28T05:27:01;17.63;;;8.93;;
55015;SDS011;40919;43.236;21.590;2022-09-28T05:29:26;19.48;;;9.05;;
55015;SDS011;40919;43.236;21.590;2022-09-28T05:31:52;17.73;;;9.57;;
55015;SDS011;40919;43.236;21.590;2022-09-28T05:34:18;16.52;;;9.73;;
55015;SDS011;40919;43.236;21.590;2022-09-28T05:36:44;15.18;;;9.10;;
55015;SDS011;40919;43.236;21.590;2022-09-28T05:39:10;17.67;;;9.27;;
55015;SDS011;40919;43.236;21.590;2022-09-28T05:41:35;30.30;;;9.07;;
55015;SDS011;40919;43.236;21.590;2022-09-28T05:44:01;13.77;;;8.65;;
55015;SDS011;40919;43.236;21.590;2022-09-28T05:46:27;16.20;;;8.82;;
55015;SDS011;40919;43.236;21.590;2022-09-28T05:48:53;17.85;;;10.65;;
55015;SDS011;40919;43.236;21.590;2022-09-28T05:51:19;20.70;;;12.20;;
55015;SDS011;40919;43.236;21.590;2022-09-28T05:53:45;19.27;;;12.88;;
55015;SDS011;40919;43.236;21.590;2022-09-28T05:56:11;40.35;;;14.20;;
55015;SDS011;40919;43.236;21.590;2022-09-28T05:58:37;34.08;;;13.88;;
55015;SDS011;40919;43.236;21.590;2022-09-28T06:01:03;31.33;;;12.73;;
55015;SDS011;40919;43.236;21.590;2022-09-28T06:03:28;22.35;;;11.90;;
55015;SDS011;40919;43.236;21.590;2022-09-28T06:05:54;22.35;;;10.65;;
55015;SDS011;40919;43.236;21.590;2022-09-28T06:08:20;21.23;;;10.32;;
55015;SDS011;40919;43.236;21.590;2022-09-28T06:10:46;21.90;;;9.95;;
55015;SDS011;40919;43.236;21.590;2022-09-28T06:13:12;17.63;;;10.50;;
55015;SDS011;40919;43.236;21.590;2022-09-28T06:15:40;18.80;;;9.18;;
55015;SDS011;40919;43.236;21.590;2022-09-28T06:18:10;16.23;;;9.00;;
55015;SDS011;40919;43.236;21.590;2022-09-28T06:20:39;15.40;;;9.03;;
55015;SDS011;40919;43.236;21.590;2022-09-28T06:23:05;14.80;;;10.75;;
55015;SDS011;40919;43.236;21.590;2022-09-28T06:25:32;18.83;;;10.07;;
55015;SDS011;40919;43.236;21.590;2022-09-28T06:28:02;26.05;;;13.70;;
55015;SDS011;40919;43.236;21.590;2022-09-28T06:30:30;23.50;;;12.68;;
55015;SDS011;40919;43.236;21.590;2022-09-28T06:32:58;21.60;;;14.18;;
55015;SDS011;40919;43.236;21.590;2022-09-28T06:35:26;25.17;;;14.18;;
55015;SDS011;40919;43.236;21.590;2022-09-28T06:37:54;22.75;;;14.48;;
55015;SDS011;40919;43.236;21.590;2022-09-28T06:40:20;20.95;;;14.52;;
55015;SDS011;40919;43.236;21.590;2022-09-28T06:42:57;24.48;;;15.07;;
55015;SDS011;40919;43.236;21.590;2022-09-28T06:45:23;22.60;;;16.35;;
55015;SDS011;40919;43.236;21.590;2022-09-28T06:47:54;24.95;;;16.95;;
55015;SDS011;40919;43.236;21.590;2022-09-28T06:50:22;23.95;;;15.50;;
55015;SDS011;40919;43.236;21.590;2022-09-28T06:52:52;25.95;;;14.68;;
55015;SDS011;40919;43.236;21.590;2022-09-28T06:55:19;20.35;;;15.10;;
55015;SDS011;40919;43.236;21.590;2022-09-28T06:57:46;23.75;;;14.35;;
55015;SDS011;40919;43.236;21.590;2022-09-28T07:00:12;20.77;;;14.15;;
55015;SDS011;40919;43.236;21.590;2022-09-28T07:02:38;23.35;;;13.82;;
55015;SDS011;40919;43.236;21.590;2022-09-28T07:05:04;18.92;;;11.95;;
55015;SDS011;40919;43.236;21.590;2022-09-28T07:07:32;19.40;;;11.40;;
55015;SDS011;40919;43.236;21.590;2022-09-28T07:09:58;23.00;;;11.52;;
55015;SDS011;40919;43.236;21.590;2022-09-28T07:12:24;17.77;;;10.25;;
55015;SDS011;40919;43.236;21.590;2022-09-28T07:14:50;16.45;;;10.82;;
55015;SDS011;40919;43.236;21.590;2022-09-28T07:17:21;21.52;;;12.23;;
55015;SDS011;40919;43.236;21.590;2022-09-28T07:19:48;17.90;;;11.27;;
55015;SDS011;40919;43.236;21.590;2022-09-28T07:22:20;18.65;;;11.27;;
55015;SDS011;40919;43.236;21.590;2022-09-28T07:24:46;34.75;;;22.50;;
55015;SDS011;40919;43.236;21.590;2022-09-28T07:27:12;21.30;;;15.27;;
55015;SDS011;40919;43.236;21.590;2022-09-28T07:29:39;17.98;;;12.55;;
55015;SDS011;40919;43.236;21.590;2022-09-28T07:32:04;23.60;;;12.70;;
55015;SDS011;40919;43.236;21.590;2022-09-28T07:34:30;28.10;;;15.15;;
55015;SDS011;40919;43.236;21.590;2022-09-28T07:36:59;18.52;;;11.88;;
55015;SDS011;40919;43.236;21.590;2022-09-28T07:39:25;21.45;;;13.05;;
55015;SDS011;40919;43.236;21.590;2022-09-28T07:41:51;14.55;;;9.32;;
55015;SDS011;40919;43.236;21.590;2022-09-28T07:44:17;14.18;;;9.00;;
55015;SDS011;40919;43.236;21.590;2022-09-28T07:46:43;14.68;;;9.68;;
55015;SDS011;40919;43.236;21.590;2022-09-28T07:49:08;15.18;;;10.90;;
55015;SDS011;40919;43.236;21.590;2022-09-28T07:51:35;18.05;;;9.60;;
55015;SDS011;40919;43.236;21.590;2022-09-28T07:54:01;15.90;;;9.45;;
55015;SDS011;40919;43.236;21.590;2022-09-28T07:56:27;18.88;;;10.02;;
55015;SDS011;40919;43.236;21.590;2022-09-28T07:58:55;16.10;;;10.00;;
55015;SDS011;40919;43.236;21.590;2022-09-28T08:01:20;18.10;;;9.57;;
55015;SDS011;40919;43.236;21.590;2022-09-28T08:03:46;19.02;;;12.75;;
55015;SDS011;40919;43.236;21.590;2022-09-28T08:06:13;18.15;;;11.15;;
55015;SDS011;40919;43.236;21.590;2022-09-28T08:08:41;19.08;;;11.05;;
55015;SDS011;40919;43.236;21.590;2022-09-28T08:11:13;16.27;;;11.30;;
55015;SDS011;40919;43.236;21.590;2022-09-28T08:13:42;18.40;;;10.82;;
55015;SDS011;40919;43.236;21.590;2022-09-28T08:16:09;16.35;;;10.52;;
55015;SDS011;40919;43.236;21.590;2022-09-28T08:18:36;20.40;;;8.93;;
55015;SDS011;40919;43.236;21.590;2022-09-28T08:21:03;18.98;;;10.27;;
55015;SDS011;40919;43.236;21.590;2022-09-28T08:23:48;18.80;;;10.32;;
55015;SDS011;40919;43.236;21.590;2022-09-28T08:26:14;21.45;;;9.75;;
55015;SDS011;40919;43.236;21.590;2022-09-28T08:28:41;15.70;;;8.13;;
55015;SDS011;40919;43.236;21.590;2022-09-28T08:31:07;15.88;;;7.95;;
55015;SDS011;40919;43.236;21.590;2022-09-28T08:33:34;19.20;;;9.20;;
55015;SDS011;40919;43.236;21.590;2022-09-28T08:36:00;17.08;;;8.23;;
55015;SDS011;40919;43.236;21.590;2022-09-28T08:38:27;19.05;;;8.52;;
55015;SDS011;40919;43.236;21.590;2022-09-28T08:44:03;11.50;;;6.75;;
55015;SDS011;40919;43.236;21.590;2022-09-28T08:46:54;14.00;;;5.75;;
55015;SDS011;40919;43.236;21.590;2022-09-28T08:49:34;15.15;;;8.85;;
55015;SDS011;40919;43.236;21.590;2022-09-28T08:57:28;16.80;;;10.35;;
55015;SDS011;40919;43.236;21.590;2022-09-28T09:00:00;14.02;;;7.60;;
55015;SDS011;40919;43.236;21.590;2022-09-28T09:02:30;18.02;;;7.30;;
55015;SDS011;40919;43.236;21.590;2022-09-28T09:05:05;12.65;;;6.40;;
55015;SDS011;40919;43.236;21.590;2022-09-28T09:16:00;11.25;;;6.45;;
55015;SDS011;40919;43.236;21.590;2022-09-28T09:18:42;15.18;;;7.35;;
55015;SDS011;40919;43.236;21.590;2022-09-28T09:24:54;14.75;;;6.03;;
55015;SDS011;40919;43.236;21.590;2022-09-28T09:52:02;24.88;;;13.10;;
55015;SDS011;40919;43.236;21.590;2022-09-28T09:54:41;17.35;;;9.57;;
55015;SDS011;40919;43.236;21.590;2022-09-28T09:59:37;11.27;;;5.28;;
55015;SDS011;40919;43.236;21.590;2022-09-28T10:02:48;8.73;;;3.88;;
55015;SDS011;40919;43.236;21.590;2022-09-28T10:04:58;11.88;;;5.05;;
55015;SDS011;40919;43.236;21.590;2022-09-28T10:10:32;8.18;;;2.38;;
55015;SDS011;40919;43.236;21.590;2022-09-28T10:13:00;5.32;;;1.90;;
55015;SDS011;40919;43.236;21.590;2022-09-28T10:15:27;4.55;;;2.00;;
55015;SDS011;40919;43.236;21.590;2022-09-28T10:17:54;8.02;;;1.98;;
55015;SDS011;40919;43.236;21.590;2022-09-28T10:20:21;6.20;;;2.10;;
55015;SDS011;40919;43.236;21.590;2022-09-28T10:22:52;5.00;;;1.92;;
55015;SDS011;40919;43.236;21.590;2022-09-28T10:25:21;6.30;;;2.50;;
55015;SDS011;40919;43.236;21.590;2022-09-28T10:27:47;7.32;;;2.28;;
55015;SDS011;40919;43.236;21.590;2022-09-28T10:32:47;4.68;;;2.15;;
55015;SDS011;40919;43.236;21.590;2022-09-28T10:37:47;7.10;;;2.58;;
55015;SDS011;40919;43.236;21.590;2022-09-28T10:45:47;8.10;;;2.35;;
55015;SDS011;40919;43.236;21.590;2022-09-28T10:48:18;7.57;;;2.78;;
55015;SDS011;40919;43.236;21.590;2022-09-28T10:50:58;12.02;;;3.35;;
55015;SDS011;40919;43.236;21.590;2022-09-28T10:53:24;5.50;;;1.85;;
55015;SDS011;40919;43.236;21.590;2022-09-28T10:55:55;9.25;;;2.33;;
55015;SDS011;40919;43.236;21.590;2022-09-28T10:58:27;8.82;;;2.53;;
55015;SDS011;40919;43.236;21.590;2022-09-28T11:00:58;9.95;;;4.22;;
55015;SDS011;40919;43.236;21.590;2022-09-28T11:03:25;9.52;;;3.13;;
55015;SDS011;40919;43.236;21.590;2022-09-28T11:05:56;9.40;;;2.38;;
55015;SDS011;40919;43.236;21.590;2022-09-28T11:08:27;8.02;;;3.20;;
55015;SDS011;40919;43.236;21.590;2022-09-28T11:11:00;8.20;;;3.80;;
55015;SDS011;40919;43.236;21.590;2022-09-28T11:13:26;8.15;;;2.88;;
55015;SDS011;40919;43.236;21.590;2022-09-28T11:15:53;7.20;;;2.53;;
55015;SDS011;40919;43.236;21.590;2022-09-28T11:18:24;8.20;;;3.03;;
55015;SDS011;40919;43.236;21.590;2022-09-28T11:20:52;9.25;;;3.13;;
55015;SDS011;40919;43.236;21.590;2022-09-28T11:23:31;8.13;;;2.80;;
55015;SDS011;40919;43.236;21.590;2022-09-28T11:25:58;9.80;;;2.70;;
55015;SDS011;40919;43.236;21.590;2022-09-28T11:28:31;10.00;;;3.35;;
55015;SDS011;40919;43.236;21.590;2022-09-28T11:31:00;9.35;;;2.70;;
55015;SDS011;40919;43.236;21.590;2022-09-28T11:41:33;9.05;;;2.60;;
55015;SDS011;40919;43.236;21.590;2022-09-28T11:44:12;6.55;;;2.28;;
55015;SDS011;40919;43.236;21.590;2022-09-28T11:47:01;7.03;;;2.95;;
55015;SDS011;40919;43.236;21.590;2022-09-28T11:49:41;5.13;;;2.17;;
55015;SDS011;40919;43.236;21.590;2022-09-28T11:52:19;5.47;;;2.30;;
55015;SDS011;40919;43.236;21.590;2022-09-28T11:54:58;5.72;;;2.83;;
55015;SDS011;40919;43.236;21.590;2022-09-28T11:57:37;8.38;;;2.85;;
55015;SDS011;40919;43.236;21.590;2022-09-28T12:00:06;4.10;;;2.00;;
55015;SDS011;40919;43.236;21.590;2022-09-28T12:05:12;7.70;;;2.55;;
55015;SDS011;40919;43.236;21.590;2022-09-28T12:07:51;7.10;;;2.55;;
55015;SDS011;40919;43.236;21.590;2022-09-28T12:10:30;7.65;;;2.00;;
55015;SDS011;40919;43.236;21.590;2022-09-28T12:12:58;5.95;;;3.08;;
55015;SDS011;40919;43.236;21.590;2022-09-28T12:18:14;5.07;;;2.22;;
55015;SDS011;40919;43.236;21.590;2022-09-28T12:20:46;5.38;;;2.00;;
55015;SDS011;40919;43.236;21.590;2022-09-28T12:23:19;6.10;;;2.97;;
55015;SDS011;40919;43.236;21.590;2022-09-28T12:26:38;8.43;;;3.10;;
55015;SDS011;40919;43.236;21.590;2022-09-28T12:28:48;6.93;;;2.80;;
55015;SDS011;40919;43.236;21.590;2022-09-28T12:31:28;5.80;;;2.80;;
55015;SDS011;40919;43.236;21.590;2022-09-28T12:33:58;6.07;;;2.25;;
55015;SDS011;40919;43.236;21.590;2022-09-28T12:36:42;9.48;;;3.33;;
55015;SDS011;40919;43.236;21.590;2022-09-28T12:45:13;8.55;;;3.13;;
55015;SDS011;40919;43.236;21.590;2022-09-28T12:54:22;11.68;;;3.45;;
55015;SDS011;40919;43.236;21.590;2022-09-28T12:57:13;6.20;;;2.95;;
55015;SDS011;40919;43.236;21.590;2022-09-28T12:59:51;6.60;;;2.17;;
55015;SDS011;40919;43.236;21.590;2022-09-28T13:08:01;5.60;;;2.38;;
55015;SDS011;40919;43.236;21.590;2022-09-28T13:10:33;8.20;;;2.47;;
55015;SDS011;40919;43.236;21.590;2022-09-28T13:18:27;5.88;;;3.10;;
55015;SDS011;40919;43.236;21.590;2022-09-28T13:24:04;6.88;;;2.58;;
55015;SDS011;40919;43.236;21.590;2022-09-28T13:26:37;5.55;;;2.47;;
55015;SDS011;40919;43.236;21.590;2022-09-28T13:29:17;8.18;;;2.47;;
55015;SDS011;40919;43.236;21.590;2022-09-28T13:31:49;8.18;;;4.32;;
55015;SDS011;40919;43.236;21.590;2022-09-28T13:34:18;12.77;;;3.95;;
55015;SDS011;40919;43.236;21.590;2022-09-28T13:37:09;7.25;;;2.63;;
55015;SDS011;40919;43.236;21.590;2022-09-28T13:45:37;6.22;;;3.05;;
55015;SDS011;40919;43.236;21.590;2022-09-28T13:53:06;10.00;;;2.83;;
55015;SDS011;40919;43.236;21.590;2022-09-28T13:58:59;7.78;;;3.03;;
55015;SDS011;40919;43.236;21.590;2022-09-28T14:04:18;9.90;;;2.70;;
55015;SDS011;40919;43.236;21.590;2022-09-28T14:09:40;7.35;;;3.35;;
55015;SDS011;40919;43.236;21.590;2022-09-28T14:12:29;7.18;;;3.22;;
55015;SDS011;40919;43.236;21.590;2022-09-28T14:14:58;6.27;;;3.40;;
55015;SDS011;40919;43.236;21.590;2022-09-28T14:20:14;10.35;;;3.63;;
55015;SDS011;40919;43.236;21.590;2022-09-28T14:25:27;12.15;;;3.97;;
55015;SDS011;40919;43.236;21.590;2022-09-28T14:28:20;8.65;;;3.47;;
55015;SDS011;40919;43.236;21.590;2022-09-28T14:30:50;12.85;;;3.30;;
55015;SDS011;40919;43.236;21.590;2022-09-28T14:33:21;8.75;;;3.60;;
55015;SDS011;40919;43.236;21.590;2022-09-28T14:38:27;7.50;;;3.60;;
55015;SDS011;40919;43.236;21.590;2022-09-28T14:44:01;10.73;;;3.83;;
55015;SDS011;40919;43.236;21.590;2022-09-28T14:46:30;8.35;;;3.65;;
55015;SDS011;40919;43.236;21.590;2022-09-28T14:59:27;7.70;;;3.50;;
55015;SDS011;40919;43.236;21.590;2022-09-28T15:04:32;10.60;;;4.25;;
55015;SDS011;40919;43.236;21.590;2022-09-28T15:07:03;9.73;;;5.28;;
55015;SDS011;40919;43.236;21.590;2022-09-28T15:09:30;14.93;;;5.45;;
55015;SDS011;40919;43.236;21.590;2022-09-28T15:12:04;8.63;;;3.65;;
55015;SDS011;40919;43.236;21.590;2022-09-28T15:14:52;10.32;;;5.65;;
55015;SDS011;40919;43.236;21.590;2022-09-28T15:17:25;9.65;;;4.38;;
55015;SDS011;40919;43.236;21.590;2022-09-28T15:22:47;20.00;;;5.15;;
55015;SDS011;40919;43.236;21.590;2022-09-28T15:25:15;6.97;;;2.92;;
55015;SDS011;40919;43.236;21.590;2022-09-28T15:27:43;8.15;;;2.70;;
55015;SDS011;40919;43.236;21.590;2022-09-28T15:30:25;9.52;;;3.58;;
55015;SDS011;40919;43.236;21.590;2022-09-28T15:32:52;9.27;;;4.35;;
55015;SDS011;40919;43.236;21.590;2022-09-28T15:35:21;10.57;;;4.18;;
55015;SDS011;40919;43.236;21.590;2022-09-28T15:37:50;6.95;;;2.78;;
55015;SDS011;40919;43.236;21.590;2022-09-28T15:40:17;7.15;;;3.80;;
55015;SDS011;40919;43.236;21.590;2022-09-28T15:42:44;13.60;;;5.13;;
55015;SDS011;40919;43.236;21.590;2022-09-28T15:48:18;8.93;;;4.75;;
55015;SDS011;40919;43.236;21.590;2022-09-28T15:51:02;13.02;;;5.90;;
55015;SDS011;40919;43.236;21.590;2022-09-28T15:53:34;11.30;;;3.85;;
55015;SDS011;40919;43.236;21.590;2022-09-28T15:56:01;9.55;;;4.25;;
55015;SDS011;40919;43.236;21.590;2022-09-28T15:58:33;12.93;;;5.45;;
55015;SDS011;40919;43.236;21.590;2022-09-28T16:03:55;11.90;;;6.03;;
55015;SDS011;40919;43.236;21.590;2022-09-28T16:06:21;14.45;;;7.00;;
55015;SDS011;40919;43.236;21.590;2022-09-28T16:08:47;11.57;;;6.38;;
55015;SDS011;40919;43.236;21.590;2022-09-28T16:11:20;12.07;;;5.35;;
55015;SDS011;40919;43.236;21.590;2022-09-28T16:16:51;10.63;;;4.50;;
55015;SDS011;40919;43.236;21.590;2022-09-28T16:19:24;9.77;;;5.05;;
55015;SDS011;40919;43.236;21.590;2022-09-28T16:21:56;14.88;;;5.50;;
55015;SDS011;40919;43.236;21.590;2022-09-28T16:24:31;12.45;;;5.05;;
55015;SDS011;40919;43.236;21.590;2022-09-28T16:26:59;12.23;;;4.78;;
55015;SDS011;40919;43.236;21.590;2022-09-28T16:29:34;12.90;;;5.25;;
55015;SDS011;40919;43.236;21.590;2022-09-28T16:35:06;20.25;;;11.07;;
55015;SDS011;40919;43.236;21.590;2022-09-28T16:37:37;18.52;;;11.88;;
55015;SDS011;40919;43.236;21.590;2022-09-28T16:40:10;20.50;;;14.35;;
55015;SDS011;40919;43.236;21.590;2022-09-28T16:42:36;19.60;;;12.85;;
55015;SDS011;40919;43.236;21.590;2022-09-28T16:45:03;16.95;;;8.50;;
55015;SDS011;40919;43.236;21.590;2022-09-28T16:47:31;14.73;;;7.60;;
55015;SDS011;40919;43.236;21.590;2022-09-28T16:50:03;17.20;;;6.40;;
55015;SDS011;40919;43.236;21.590;2022-09-28T16:52:30;11.05;;;6.78;;
55015;SDS011;40919;43.236;21.590;2022-09-28T16:55:15;13.18;;;7.82;;
55015;SDS011;40919;43.236;21.590;2022-09-28T16:57:42;13.93;;;6.72;;
55015;SDS011;40919;43.236;21.590;2022-09-28T17:03:07;12.88;;;8.18;;
55015;SDS011;40919;43.236;21.590;2022-09-28T17:05:35;9.32;;;6.80;;
55015;SDS011;40919;43.236;21.590;2022-09-28T17:08:03;49.28;;;30.75;;
55015;SDS011;40919;43.236;21.590;2022-09-28T17:10:35;67.28;;;45.90;;
55015;SDS011;40919;43.236;21.590;2022-09-28T17:13:07;26.73;;;16.52;;
55015;SDS011;40919;43.236;21.590;2022-09-28T17:15:36;26.13;;;14.98;;
55015;SDS011;40919;43.236;21.590;2022-09-28T17:18:04;23.52;;;16.58;;
55015;SDS011;40919;43.236;21.590;2022-09-28T17:20:30;18.33;;;11.30;;
55015;SDS011;40919;43.236;21.590;2022-09-28T17:22:57;17.15;;;7.53;;
55015;SDS011;40919;43.236;21.590;2022-09-28T17:25:24;12.88;;;6.93;;
55015;SDS011;40919;43.236;21.590;2022-09-28T17:27:50;13.23;;;7.30;;
55015;SDS011;40919;43.236;21.590;2022-09-28T17:30:20;24.67;;;12.55;;
55015;SDS011;40919;43.236;21.590;2022-09-28T17:32:46;19.08;;;11.07;;
55015;SDS011;40919;43.236;21.590;2022-09-28T17:35:16;17.38;;;9.10;;
55015;SDS011;40919;43.236;21.590;2022-09-28T17:37:43;14.75;;;7.63;;
55015;SDS011;40919;43.236;21.590;2022-09-28T17:40:17;16.13;;;8.57;;
55015;SDS011;40919;43.236;21.590;2022-09-28T17:42:53;16.02;;;9.45;;
55015;SDS011;40919;43.236;21.590;2022-09-28T17:45:21;27.13;;;15.23;;
55015;SDS011;40919;43.236;21.590;2022-09-28T17:47:49;20.90;;;10.48;;
55015;SDS011;40919;43.236;21.590;2022-09-28T17:50:23;14.90;;;8.55;;
55015;SDS011;40919;43.236;21.590;2022-09-28T17:52:51;20.70;;;8.73;;
55015;SDS011;40919;43.236;21.590;2022-09-28T17:55:21;16.83;;;8.00;;
55015;SDS011;40919;43.236;21.590;2022-09-28T17:57:47;15.00;;;8.57;;
55015;SDS011;40919;43.236;21.590;2022-09-28T18:00:14;19.15;;;11.27;;
55015;SDS011;40919;43.236;21.590;2022-09-28T18:02:41;21.65;;;10.90;;